Time;durP1;ratioP1;P1;durP2;ratioP2;P2;SDS_P1;SDS_P2;PMS_P1;PMS_P2;Temp;Humidity;BMP_temperature;BMP_pressure;BME280_temperature;BME280_humidity;BME280_pressure;Samples;Min_cycle;Max_cycle;Signal;HPM_P1;HPM_P2
2021/11/08 00:00:35;;;;;;;43.30;13.48;;;;;;;;;;5095680;28;20406;-54
2021/11/08 00:03:06;;;;;;;40.03;12.70;;;;;;;;;;5089594;28;20032;-54
2021/11/08 00:05:35;;;;;;;39.60;14.10;;;;;;;;;;5094644;28;20028;-54
2021/11/08 00:08:02;;;;;;;44.60;13.88;;;;;;;;;;5095419;28;20368;-54
2021/11/08 00:10:31;;;;;;;42.47;13.45;;;;;;;;;;5090283;28;20055;-55
2021/11/08 00:12:59;;;;;;;34.42;13.27;;;;;;;;;;5091399;28;20036;-54
2021/11/08 00:15:39;;;;;;;30.40;12.63;;;;;;;;;;5099238;28;20537;-55
2021/11/08 00:20:51;;;;;;;42.45;13.35;;;;;;;;;;5094248;28;20034;-55
2021/11/08 00:23:17;;;;;;;34.35;12.20;;;;;;;;;;5092847;28;20047;-55
2021/11/08 00:25:43;;;;;;;44.33;12.52;;;;;;;;;;5094253;28;20027;-55
2021/11/08 00:28:13;;;;;;;33.13;11.38;;;;;;;;;;5092266;28;20122;-55
2021/11/08 00:30:39;;;;;;;38.33;11.93;;;;;;;;;;5090269;28;20111;-54
2021/11/08 00:33:14;;;;;;;42.30;11.57;;;;;;;;;;5093968;28;20032;-55
2021/11/08 00:35:40;;;;;;;38.47;11.43;;;;;;;;;;5093015;28;20071;-54
2021/11/08 00:38:07;;;;;;;44.63;12.32;;;;;;;;;;5092273;28;20063;-55
2021/11/08 00:40:34;;;;;;;35.03;12.50;;;;;;;;;;5094473;28;20051;-55
2021/11/08 00:42:59;;;;;;;36.90;13.75;;;;;;;;;;5093219;28;20032;-54
2021/11/08 00:45:25;;;;;;;37.40;13.15;;;;;;;;;;5093113;28;20534;-55
2021/11/08 00:47:51;;;;;;;36.35;13.48;;;;;;;;;;5094753;28;20058;-55
2021/11/08 00:50:17;;;;;;;36.97;13.80;;;;;;;;;;5093557;28;20060;-55
2021/11/08 00:52:43;;;;;;;38.35;13.60;;;;;;;;;;5098632;28;20031;-55
2021/11/08 00:55:09;;;;;;;34.25;14.13;;;;;;;;;;5088884;28;20046;-53
2021/11/08 00:57:37;;;;;;;49.67;14.85;;;;;;;;;;5092097;28;20115;-55
2021/11/08 01:00:05;;;;;;;46.42;14.95;;;;;;;;;;5092440;28;20080;-54
2021/11/08 01:02:31;;;;;;;54.75;15.55;;;;;;;;;;5091229;28;20038;-55
2021/11/08 01:05:01;;;;;;;43.50;14.10;;;;;;;;;;5092445;28;20036;-55
2021/11/08 01:07:29;;;;;;;47.85;15.82;;;;;;;;;;5090413;28;20030;-54
2021/11/08 01:09:56;;;;;;;49.05;15.27;;;;;;;;;;5095283;28;20059;-55
2021/11/08 01:12:23;;;;;;;44.60;14.98;;;;;;;;;;5094242;28;20115;-55
2021/11/08 01:14:50;;;;;;;45.83;16.70;;;;;;;;;;5071565;28;20534;-55
2021/11/08 01:17:16;;;;;;;41.05;15.23;;;;;;;;;;5089830;28;20032;-53
2021/11/08 01:19:42;;;;;;;43.53;13.52;;;;;;;;;;5091510;28;20058;-54
2021/11/08 01:22:16;;;;;;;37.70;13.15;;;;;;;;;;5093231;28;20040;-55
2021/11/08 01:24:51;;;;;;;39.97;11.70;;;;;;;;;;5092984;28;20024;-55
2021/11/08 01:27:16;;;;;;;31.67;12.93;;;;;;;;;;5092195;28;20116;-54
2021/11/08 01:29:42;;;;;;;39.00;10.15;;;;;;;;;;5093800;28;20474;-54
2021/11/08 01:32:10;;;;;;;32.30;10.88;;;;;;;;;;5091328;28;20061;-54
2021/11/08 01:34:35;;;;;;;44.20;11.07;;;;;;;;;;5093244;28;20107;-53
2021/11/08 01:37:01;;;;;;;39.13;10.68;;;;;;;;;;5092748;28;20127;-54
2021/11/08 01:39:35;;;;;;;39.22;10.68;;;;;;;;;;5079116;28;20452;-54
2021/11/08 01:42:05;;;;;;;35.80;11.63;;;;;;;;;;5091269;28;20032;-53
2021/11/08 01:44:31;;;;;;;37.10;11.18;;;;;;;;;;5075446;28;20039;-56
2021/11/08 01:46:59;;;;;;;38.45;10.18;;;;;;;;;;5096324;28;20024;-55
2021/11/08 01:49:25;;;;;;;31.50;10.77;;;;;;;;;;5092850;28;20020;-53
2021/11/08 01:51:51;;;;;;;38.55;10.98;;;;;;;;;;5091141;28;20034;-55
2021/11/08 01:54:17;;;;;;;28.20;9.32;;;;;;;;;;5096232;28;20608;-55
2021/11/08 01:56:44;;;;;;;36.97;9.57;;;;;;;;;;5097780;28;20275;-54
2021/11/08 01:59:10;;;;;;;31.83;10.95;;;;;;;;;;5095766;28;20040;-55
2021/11/08 02:01:36;;;;;;;38.25;9.05;;;;;;;;;;5094279;28;20052;-55
2021/11/08 02:04:02;;;;;;;36.95;10.57;;;;;;;;;;5093501;28;20107;-55
2021/11/08 02:06:27;;;;;;;34.08;10.27;;;;;;;;;;5096095;28;20480;-55
2021/11/08 02:08:53;;;;;;;30.20;10.10;;;;;;;;;;5100708;28;20066;-55
2021/11/08 02:11:21;;;;;;;35.30;9.60;;;;;;;;;;5092238;28;20235;-55
2021/11/08 02:13:50;;;;;;;24.05;9.20;;;;;;;;;;5093536;28;20067;-55
2021/11/08 02:16:16;;;;;;;30.27;9.52;;;;;;;;;;5096961;28;20023;-55
2021/11/08 02:18:42;;;;;;;31.48;9.70;;;;;;;;;;5074930;28;20043;-54
2021/11/08 02:21:11;;;;;;;27.45;8.70;;;;;;;;;;5091741;28;20036;-55
2021/11/08 02:23:38;;;;;;;37.00;9.85;;;;;;;;;;5092617;28;20028;-55
2021/11/08 02:26:06;;;;;;;28.17;9.38;;;;;;;;;;5094243;28;20032;-56
2021/11/08 02:28:32;;;;;;;26.70;9.82;;;;;;;;;;5093105;28;20118;-55
2021/11/08 02:30:58;;;;;;;35.47;9.40;;;;;;;;;;5095464;28;20480;-56
2021/11/08 02:33:27;;;;;;;35.35;10.00;;;;;;;;;;5095863;28;20035;-56
2021/11/08 02:35:55;;;;;;;28.00;9.45;;;;;;;;;;5091831;28;20532;-56
2021/11/08 02:38:27;;;;;;;26.92;9.05;;;;;;;;;;5095234;28;20224;-55
2021/11/08 02:40:57;;;;;;;;;;;;;;;;;;5092219;28;20146;-54
2021/11/08 02:43:25;;;;;;;26.80;9.10;;;;;;;;;;5093688;28;20324;-54
2021/11/08 02:46:01;;;;;;;27.98;9.52;;;;;;;;;;5091062;28;20040;-55
2021/11/08 02:48:27;;;;;;;32.65;8.93;;;;;;;;;;5092369;28;20035;-56
2021/11/08 02:50:56;;;;;;;28.92;8.35;;;;;;;;;;5092466;28;20031;-55
2021/11/08 02:53:24;;;;;;;35.92;9.38;;;;;;;;;;5094715;28;20036;-56
2021/11/08 02:55:50;;;;;;;33.35;9.48;;;;;;;;;;5093384;28;20051;-56
2021/11/08 02:58:17;;;;;;;32.97;8.95;;;;;;;;;;5095773;28;20112;-56
2021/11/08 03:00:42;;;;;;;34.38;11.32;;;;;;;;;;5092354;28;20089;-55
2021/11/08 03:03:08;;;;;;;33.42;8.80;;;;;;;;;;5095582;28;20040;-55
2021/11/08 03:05:36;;;;;;;31.45;8.75;;;;;;;;;;5078691;28;20410;-55
2021/11/08 03:08:08;;;;;;;33.42;9.90;;;;;;;;;;5092824;28;20043;-55
2021/11/08 03:10:37;;;;;;;39.85;10.05;;;;;;;;;;5077168;28;20055;-55
2021/11/08 03:13:17;;;;;;;23.75;8.88;;;;;;;;;;5092861;28;20106;-56
2021/11/08 03:15:50;;;;;;;30.88;9.05;;;;;;;;;;5093229;28;20142;-55
2021/11/08 03:18:25;;;;;;;;;;;;;;;;;;5094490;28;20031;-56
2021/11/08 03:20:51;;;;;;;25.75;8.15;;;;;;;;;;5093046;28;19916;-56
2021/11/08 03:23:17;;;;;;;34.08;9.30;;;;;;;;;;5094892;28;20031;-55
2021/11/08 03:25:50;;;;;;;31.77;9.07;;;;;;;;;;5091226;28;20118;-57
2021/11/08 03:28:18;;;;;;;30.23;8.90;;;;;;;;;;5095924;28;20498;-55
2021/11/08 03:30:48;;;;;;;34.60;8.45;;;;;;;;;;5089907;28;20050;-56
2021/11/08 03:33:16;;;;;;;34.15;9.07;;;;;;;;;;5094388;28;20032;-55
2021/11/08 03:35:42;;;;;;;25.55;7.78;;;;;;;;;;5094791;28;20050;-56
2021/11/08 03:38:10;;;;;;;26.17;8.23;;;;;;;;;;5094712;28;20036;-55
2021/11/08 03:40:39;;;;;;;24.83;8.30;;;;;;;;;;5096123;28;20059;-56
2021/11/08 03:43:10;;;;;;;25.42;8.18;;;;;;;;;;5096705;28;20028;-56
2021/11/08 03:45:35;;;;;;;25.23;7.25;;;;;;;;;;5092536;28;20035;-56
2021/11/08 03:48:03;;;;;;;30.50;7.30;;;;;;;;;;5096371;28;20028;-56
2021/11/08 03:50:29;;;;;;;34.25;8.95;;;;;;;;;;5090652;28;20108;-56
2021/11/08 03:52:55;;;;;;;25.33;6.93;;;;;;;;;;5091832;28;22097;-56
2021/11/08 03:55:21;;;;;;;22.60;7.90;;;;;;;;;;5091565;28;20024;-56
2021/11/08 03:57:48;;;;;;;25.63;7.78;;;;;;;;;;5095419;28;20387;-56
2021/11/08 04:00:16;;;;;;;26.38;7.38;;;;;;;;;;5088736;28;20039;-56
2021/11/08 04:02:42;;;;;;;20.30;6.00;;;;;;;;;;5089552;28;20154;-56
2021/11/08 04:05:09;;;;;;;23.02;7.35;;;;;;;;;;5092778;28;20066;-56
2021/11/08 04:07:35;;;;;;;24.92;6.82;;;;;;;;;;5091221;28;20043;-55
2021/11/08 04:10:00;;;;;;;29.63;7.32;;;;;;;;;;5094627;28;20048;-55
2021/11/08 04:12:27;;;;;;;20.63;6.03;;;;;;;;;;5091647;28;20502;-55
2021/11/08 04:14:54;;;;;;;24.95;6.65;;;;;;;;;;5095348;28;20582;-56
2021/11/08 04:17:22;;;;;;;20.77;6.78;;;;;;;;;;5090075;28;20087;-55
2021/11/08 04:19:47;;;;;;;23.63;4.90;;;;;;;;;;5092916;28;20032;-54
2021/11/08 04:22:13;;;;;;;29.45;6.43;;;;;;;;;;5090053;28;20047;-56
2021/11/08 04:24:42;;;;;;;20.67;5.72;;;;;;;;;;5089605;28;20245;-56
2021/11/08 04:27:09;;;;;;;19.13;5.72;;;;;;;;;;5096042;28;20042;-56
2021/11/08 04:29:35;;;;;;;20.55;5.55;;;;;;;;;;5075956;28;20089;-56
2021/11/08 04:32:00;;;;;;;20.35;6.13;;;;;;;;;;5095014;28;20027;-55
2021/11/08 04:34:39;;;;;;;30.38;6.72;;;;;;;;;;5091269;28;20032;-56
2021/11/08 04:37:20;;;;;;;22.30;5.25;;;;;;;;;;5092157;28;20118;-55
2021/11/08 04:42:20;;;;;;;19.27;5.03;;;;;;;;;;5093929;28;20039;-56
2021/11/08 05:22:09;;;;;;;23.70;5.15;;;;;;;;;;5092169;28;20511;-56
2021/11/08 05:32:21;;;;;;;18.45;4.85;;;;;;;;;;5097379;28;20023;-56
2021/11/08 05:34:46;;;;;;;20.85;5.20;;;;;;;;;;5094156;28;20020;-54
2021/11/08 05:37:12;;;;;;;21.02;4.82;;;;;;;;;;5097108;28;20028;-55
2021/11/08 05:39:45;;;;;;;15.07;4.50;;;;;;;;;;5096416;28;20032;-55
2021/11/08 05:42:11;;;;;;;25.20;5.13;;;;;;;;;;5100361;28;20103;-55
2021/11/08 05:44:39;;;;;;;19.70;4.60;;;;;;;;;;5096096;28;20498;-56
2021/11/08 05:47:05;;;;;;;21.65;4.60;;;;;;;;;;5100055;28;20127;-54
2021/11/08 05:49:31;;;;;;;15.13;5.30;;;;;;;;;;5096338;28;20110;-56
2021/11/08 05:51:57;;;;;;;16.00;4.35;;;;;;;;;;5101315;28;20031;-56
2021/11/08 05:54:23;;;;;;;19.35;4.80;;;;;;;;;;5093429;28;20114;-55
2021/11/08 06:51:05;;;;;;;13.30;4.10;;;;;;;;;;5093447;28;20402;-54
2021/11/08 06:53:32;;;;;;;20.23;4.68;;;;;;;;;;5093266;28;20024;-56
2021/11/08 06:55:58;;;;;;;11.13;4.38;;;;;;;;;;5092106;28;20035;-56
2021/11/08 06:58:26;;;;;;;11.35;4.28;;;;;;;;;;5093001;28;20032;-55
2021/11/08 07:00:53;;;;;;;15.73;4.78;;;;;;;;;;5095684;28;20043;-56
2021/11/08 07:03:18;;;;;;;17.63;4.65;;;;;;;;;;5074883;28;20119;-59
2021/11/08 07:05:44;;;;;;;12.88;4.10;;;;;;;;;;5094150;28;20107;-58
2021/11/08 07:08:12;;;;;;;16.52;4.68;;;;;;;;;;5092009;28;20039;-59
2021/11/08 07:10:38;;;;;;;14.82;4.70;;;;;;;;;;5098924;28;20051;-59
2021/11/08 07:13:05;;;;;;;13.68;4.40;;;;;;;;;;5097460;28;20027;-59
2021/11/08 07:15:31;;;;;;;9.32;3.90;;;;;;;;;;5091874;28;20440;-58
2021/11/08 07:17:56;;;;;;;11.93;3.70;;;;;;;;;;5094839;28;20024;-58
2021/11/08 07:20:23;;;;;;;9.38;4.22;;;;;;;;;;5100249;28;20042;-58
2021/11/08 07:22:50;;;;;;;12.63;4.53;;;;;;;;;;5094264;28;20146;-58
2021/11/08 07:25:16;;;;;;;16.90;4.32;;;;;;;;;;5092532;28;20023;-58
2021/11/08 07:27:43;;;;;;;19.30;5.47;;;;;;;;;;5096565;28;20490;-58
2021/11/08 07:30:09;;;;;;;13.80;4.63;;;;;;;;;;5094230;28;20054;-58
2021/11/08 07:32:35;;;;;;;12.52;4.47;;;;;;;;;;5073722;28;20031;-59
2021/11/08 07:35:00;;;;;;;13.48;4.55;;;;;;;;;;5085936;28;20016;-59
2021/11/08 07:37:26;;;;;;;10.45;4.78;;;;;;;;;;5096010;28;20027;-60
2021/11/08 07:39:52;;;;;;;12.20;5.80;;;;;;;;;;5091983;28;20023;-58
2021/11/08 07:42:19;;;;;;;15.18;5.20;;;;;;;;;;5094448;28;20032;-58
2021/11/08 07:44:44;;;;;;;20.63;5.85;;;;;;;;;;5080059;28;20027;-59
2021/11/08 07:47:10;;;;;;;21.55;7.65;;;;;;;;;;5092199;28;20035;-58
2021/11/08 07:49:36;;;;;;;17.50;6.28;;;;;;;;;;5091603;28;20106;-58
2021/11/08 07:52:03;;;;;;;15.20;5.45;;;;;;;;;;5091443;28;20107;-59
2021/11/08 07:54:31;;;;;;;23.13;7.05;;;;;;;;;;5090131;28;20063;-59
2021/11/08 07:57:00;;;;;;;17.42;6.60;;;;;;;;;;5092076;28;20066;-59
2021/11/08 07:59:25;;;;;;;18.00;7.18;;;;;;;;;;5093047;28;20405;-59
2021/11/08 08:01:51;;;;;;;19.77;6.63;;;;;;;;;;5093261;28;20028;-59
2021/11/08 08:04:17;;;;;;;26.52;7.35;;;;;;;;;;5092660;28;20035;-59
2021/11/08 08:06:44;;;;;;;15.63;7.43;;;;;;;;;;5092211;28;20020;-59
2021/11/08 08:09:10;;;;;;;20.13;6.28;;;;;;;;;;5089839;28;20139;-59
2021/11/08 08:11:37;;;;;;;11.60;5.43;;;;;;;;;;5092494;28;20035;-59
2021/11/08 08:14:03;;;;;;;12.45;5.80;;;;;;;;;;5093716;28;20040;-60
2021/11/08 08:16:28;;;;;;;13.65;5.35;;;;;;;;;;5101330;28;20038;-60
2021/11/08 08:18:54;;;;;;;13.68;4.75;;;;;;;;;;5090710;27;20102;-59
2021/11/08 08:21:20;;;;;;;18.73;5.75;;;;;;;;;;5095113;28;20063;-60
2021/11/08 08:23:49;;;;;;;17.08;5.50;;;;;;;;;;5094173;28;20035;-59
2021/11/08 08:26:14;;;;;;;11.00;4.75;;;;;;;;;;5091817;28;20145;-59
2021/11/08 08:28:40;;;;;;;17.52;5.40;;;;;;;;;;5077242;28;20118;-58
2021/11/08 08:31:06;;;;;;;13.95;4.53;;;;;;;;;;5090141;28;20070;-58
2021/11/08 08:33:32;;;;;;;15.30;4.70;;;;;;;;;;5088792;28;20039;-59
2021/11/08 08:35:59;;;;;;;12.55;4.40;;;;;;;;;;5092629;28;20099;-62
2021/11/08 08:38:25;;;;;;;11.98;4.28;;;;;;;;;;5093572;28;20147;-59
2021/11/08 08:40:52;;;;;;;11.73;4.68;;;;;;;;;;5087499;28;20020;-59
2021/11/08 08:43:19;;;;;;;14.00;4.93;;;;;;;;;;5089624;28;20490;-61
2021/11/08 08:45:46;;;;;;;15.95;5.38;;;;;;;;;;5089645;28;20020;-61
2021/11/08 08:48:12;;;;;;;12.80;5.30;;;;;;;;;;5093754;28;20031;-61
2021/11/08 08:50:40;;;;;;;21.65;7.60;;;;;;;;;;5091645;28;20107;-61
2021/11/08 08:53:05;;;;;;;25.15;7.18;;;;;;;;;;5088982;28;20032;-60
2021/11/08 08:55:31;;;;;;;21.13;6.68;;;;;;;;;;5095165;28;20031;-63
2021/11/08 08:57:58;;;;;;;18.67;5.70;;;;;;;;;;5092365;28;20026;-61
2021/11/08 09:00:24;;;;;;;15.23;6.05;;;;;;;;;;5099874;28;20035;-61
2021/11/08 09:02:54;;;;;;;20.90;6.60;;;;;;;;;;5098590;28;20032;-61
2021/11/08 09:05:22;;;;;;;7.88;3.05;;;;;;;;;;5099557;28;20031;-61
2021/11/08 09:07:49;;;;;;;5.43;2.00;;;;;;;;;;5098419;28;20052;-62
2021/11/08 09:10:15;;;;;;;4.82;1.10;;;;;;;;;;5099787;28;20048;-62
2021/11/08 09:12:40;;;;;;;6.13;0.43;;;;;;;;;;5095856;28;20170;-62
2021/11/08 09:15:07;;;;;;;2.20;0.73;;;;;;;;;;5099278;28;20083;-62
2021/11/08 09:17:33;;;;;;;2.35;0.65;;;;;;;;;;5097663;28;20024;-61
2021/11/08 09:19:59;;;;;;;2.05;0.40;;;;;;;;;;5099125;28;20490;-62
2021/11/08 09:22:26;;;;;;;0.45;0.32;;;;;;;;;;5097871;28;20065;-61
2021/11/08 09:24:52;;;;;;;2.95;0.40;;;;;;;;;;5098900;28;20536;-62
2021/11/08 09:27:18;;;;;;;2.65;0.52;;;;;;;;;;5093600;28;20040;-61
2021/11/08 09:29:44;;;;;;;2.55;0.30;;;;;;;;;;5100178;28;20457;-62
2021/11/08 09:32:09;;;;;;;2.17;0.40;;;;;;;;;;5098019;28;20038;-64
2021/11/08 09:34:40;;;;;;;0.30;0.30;;;;;;;;;;5094932;28;20497;-62
2021/11/08 09:37:11;;;;;;;4.57;0.30;;;;;;;;;;5095466;28;20048;-61
2021/11/08 09:39:39;;;;;;;3.55;0.32;;;;;;;;;;5091821;28;20023;-62
2021/11/08 09:42:09;;;;;;;5.18;0.82;;;;;;;;;;5098331;28;20074;-62
2021/11/08 09:44:35;;;;;;;0.90;0.45;;;;;;;;;;5098833;28;20081;-60
2021/11/08 09:47:02;;;;;;;3.03;0.30;;;;;;;;;;5093658;28;20028;-61
2021/11/08 09:49:30;;;;;;;0.95;0.30;;;;;;;;;;5093918;28;20126;-60
2021/11/08 09:51:58;;;;;;;2.63;0.45;;;;;;;;;;5097026;28;20099;-60
2021/11/08 09:54:28;;;;;;;1.98;0.43;;;;;;;;;;5096958;28;20023;-60
2021/11/08 09:56:56;;;;;;;1.85;0.50;;;;;;;;;;5095965;28;20031;-60
2021/11/08 09:59:22;;;;;;;7.13;1.08;;;;;;;;;;5095249;28;20452;-61
2021/11/08 10:01:51;;;;;;;7.13;0.70;;;;;;;;;;5094211;28;20106;-60
2021/11/08 10:04:17;;;;;;;3.17;0.60;;;;;;;;;;5096327;28;20031;-61
2021/11/08 10:06:45;;;;;;;5.72;0.57;;;;;;;;;;5094717;27;20031;-61
2021/11/08 10:09:11;;;;;;;1.33;0.40;;;;;;;;;;5099688;28;20399;-62
2021/11/08 10:11:39;;;;;;;2.92;0.50;;;;;;;;;;5098567;28;20023;-61
2021/11/08 10:14:08;;;;;;;4.38;0.65;;;;;;;;;;5096726;28;20042;-60
2021/11/08 10:16:36;;;;;;;13.10;1.17;;;;;;;;;;5099640;28;20055;-60
2021/11/08 10:19:05;;;;;;;7.93;1.02;;;;;;;;;;5095594;28;20027;-60
2021/11/08 10:21:44;;;;;;;8.20;0.82;;;;;;;;;;5100714;28;20020;-60
2021/11/08 10:24:14;;;;;;;9.57;1.00;;;;;;;;;;5094882;28;20039;-60
2021/11/08 10:26:41;;;;;;;5.72;0.73;;;;;;;;;;5093362;28;20459;-60
2021/11/08 10:29:17;;;;;;;3.20;1.00;;;;;;;;;;5090605;28;20031;-60
2021/11/08 10:31:47;;;;;;;6.88;0.77;;;;;;;;;;5093598;28;20032;-60
2021/11/08 10:34:15;;;;;;;7.78;0.90;;;;;;;;;;5098222;28;20107;-60
2021/11/08 10:36:41;;;;;;;11.65;0.80;;;;;;;;;;5098089;28;20129;-61
2021/11/08 10:39:09;;;;;;;6.90;1.50;;;;;;;;;;5094988;28;20035;-59
2021/11/08 10:41:41;;;;;;;11.48;1.33;;;;;;;;;;5097451;28;20036;-60
2021/11/08 10:44:18;;;;;;;8.50;1.40;;;;;;;;;;5095588;28;20031;-60
2021/11/08 10:46:47;;;;;;;5.63;0.73;;;;;;;;;;5096490;28;20024;-61
2021/11/08 10:49:14;;;;;;;6.40;1.08;;;;;;;;;;5093211;28;20028;-60
2021/11/08 10:51:43;;;;;;;5.80;1.02;;;;;;;;;;5090260;28;20034;-60
2021/11/08 10:54:11;;;;;;;16.92;1.33;;;;;;;;;;5093883;28;20557;-61
2021/11/08 10:56:41;;;;;;;12.73;1.42;;;;;;;;;;5093427;28;20258;-61
2021/11/08 10:59:13;;;;;;;8.45;0.95;;;;;;;;;;5092229;28;20077;-63
2021/11/08 11:01:44;;;;;;;2.72;0.68;;;;;;;;;;5092149;28;20051;-62
2021/11/08 11:04:11;;;;;;;7.00;1.23;;;;;;;;;;5095326;28;20031;-60
2021/11/08 11:06:39;;;;;;;9.45;0.80;;;;;;;;;;5095208;28;20035;-61
2021/11/08 11:09:14;;;;;;;9.25;1.45;;;;;;;;;;5095867;28;20076;-60
2021/11/08 11:11:40;;;;;;;5.95;0.93;;;;;;;;;;5098556;28;20111;-60
2021/11/08 11:14:06;;;;;;;10.27;1.30;;;;;;;;;;5099748;28;20086;-61
2021/11/08 11:16:46;;;;;;;10.02;1.55;;;;;;;;;;5095252;28;20019;-59
2021/11/08 11:19:14;;;;;;;9.23;1.38;;;;;;;;;;5092639;28;20465;-62
2021/11/08 11:21:56;;;;;;;11.10;1.10;;;;;;;;;;5094256;28;20042;-60
2021/11/08 11:24:41;;;;;;;7.20;1.35;;;;;;;;;;5093548;27;20309;-60
2021/11/08 11:27:11;;;;;;;13.45;0.80;;;;;;;;;;5096874;28;20133;-61
2021/11/08 11:29:37;;;;;;;11.40;1.08;;;;;;;;;;5098874;28;20032;-60
2021/11/08 11:32:04;;;;;;;3.28;0.50;;;;;;;;;;5088671;27;20259;-60
2021/11/08 11:34:30;;;;;;;11.40;0.90;;;;;;;;;;5092539;28;20024;-60
2021/11/08 11:36:56;;;;;;;12.82;1.15;;;;;;;;;;5092621;28;20111;-61
2021/11/08 11:39:22;;;;;;;7.28;0.65;;;;;;;;;;5089118;28;20123;-60
2021/11/08 11:41:49;;;;;;;11.43;1.27;;;;;;;;;;5095660;28;20031;-60
2021/11/08 11:44:23;;;;;;;13.00;1.63;;;;;;;;;;5097064;28;20038;-62
2021/11/08 11:46:52;;;;;;;9.57;0.93;;;;;;;;;;5076543;28;20394;-60
2021/11/08 11:49:18;;;;;;;7.15;1.17;;;;;;;;;;5095635;28;20032;-60
2021/11/08 11:51:56;;;;;;;12.40;2.35;;;;;;;;;;5094532;28;20031;-60
2021/11/08 11:54:30;;;;;;;10.95;1.17;;;;;;;;;;5089908;28;20052;-61
2021/11/08 11:56:57;;;;;;;16.70;1.23;;;;;;;;;;5097458;27;20027;-61
2021/11/08 11:59:25;;;;;;;15.20;1.15;;;;;;;;;;5095894;27;20482;-61
2021/11/08 12:01:52;;;;;;;11.57;1.10;;;;;;;;;;5095719;28;20526;-61
2021/11/08 12:04:17;;;;;;;7.68;1.30;;;;;;;;;;5098939;27;20467;-60
2021/11/08 12:06:46;;;;;;;12.68;1.77;;;;;;;;;;5087823;28;20016;-60
2021/11/08 12:09:16;;;;;;;4.57;0.65;;;;;;;;;;5101434;27;20376;-60
2021/11/08 12:11:45;;;;;;;7.75;1.17;;;;;;;;;;5092496;27;20038;-59
2021/11/08 12:14:17;;;;;;;9.60;1.00;;;;;;;;;;5089529;28;20035;-61
2021/11/08 12:17:02;;;;;;;11.00;1.08;;;;;;;;;;5097415;28;20059;-60
2021/11/08 12:19:39;;;;;;;7.60;1.30;;;;;;;;;;5094874;28;20055;-60
2021/11/08 12:22:26;;;;;;;7.70;1.25;;;;;;;;;;5095145;28;20555;-60
2021/11/08 12:25:11;;;;;;;12.85;1.63;;;;;;;;;;5098564;28;20436;-60
2021/11/08 12:27:53;;;;;;;18.13;1.60;;;;;;;;;;5096133;28;20499;-59
2021/11/08 12:30:31;;;;;;;11.30;1.30;;;;;;;;;;5094365;28;20054;-59
2021/11/08 12:32:59;;;;;;;12.05;1.50;;;;;;;;;;5091620;28;20102;-59
2021/11/08 12:35:37;;;;;;;8.10;1.20;;;;;;;;;;5093143;28;20532;-60
2021/11/08 12:38:25;;;;;;;4.05;0.80;;;;;;;;;;5087778;28;20032;-60
2021/11/08 12:41:14;;;;;;;7.82;0.77;;;;;;;;;;5080077;28;20467;-60
2021/11/08 12:43:47;;;;;;;7.97;1.10;;;;;;;;;;5092853;28;20020;-61
2021/11/08 12:46:16;;;;;;;8.70;1.48;;;;;;;;;;5089574;28;20047;-60
2021/11/08 12:48:42;;;;;;;10.80;1.00;;;;;;;;;;5098113;28;20020;-61
2021/11/08 12:51:09;;;;;;;10.07;1.35;;;;;;;;;;5088806;28;20081;-60
2021/11/08 12:53:40;;;;;;;5.68;1.05;;;;;;;;;;5094215;28;20040;-60
2021/11/08 12:56:26;;;;;;;1.77;0.73;;;;;;;;;;5092398;28;20031;-60
2021/11/08 12:59:00;;;;;;;10.77;1.15;;;;;;;;;;5090313;28;20506;-61
2021/11/08 13:01:44;;;;;;;6.13;0.80;;;;;;;;;;5091168;28;20235;-59
2021/11/08 13:04:13;;;;;;;7.35;0.90;;;;;;;;;;5092468;28;20459;-60
2021/11/08 13:06:40;;;;;;;7.45;1.05;;;;;;;;;;5091646;28;20032;-60
2021/11/08 13:09:16;;;;;;;5.05;0.80;;;;;;;;;;5086842;28;20110;-60
2021/11/08 13:11:48;;;;;;;7.55;1.00;;;;;;;;;;5093334;28;20024;-60
2021/11/08 13:14:40;;;;;;;10.00;0.93;;;;;;;;;;5092212;28;20040;-60
2021/11/08 13:17:21;;;;;;;9.38;1.33;;;;;;;;;;5087678;28;20423;-60
2021/11/08 13:19:53;;;;;;;6.47;1.10;;;;;;;;;;5093826;28;20077;-61
2021/11/08 13:22:50;;;;;;;12.57;1.27;;;;;;;;;;5092799;28;20028;-60
2021/11/08 13:25:26;;;;;;;3.75;0.80;;;;;;;;;;5075944;28;20055;-60
2021/11/08 13:27:56;;;;;;;6.10;1.10;;;;;;;;;;5089065;28;20032;-61
2021/11/08 13:30:29;;;;;;;7.80;1.00;;;;;;;;;;5091821;28;20047;-61
2021/11/08 13:32:54;;;;;;;12.75;1.10;;;;;;;;;;5094651;28;20028;-60
2021/11/08 13:35:26;;;;;;;7.65;0.90;;;;;;;;;;5095349;28;20475;-61
2021/11/08 13:38:04;;;;;;;8.23;1.13;;;;;;;;;;5092241;28;20066;-61
2021/11/08 13:40:31;;;;;;;6.80;0.80;;;;;;;;;;5091513;28;20027;-61
2021/11/08 13:43:22;;;;;;;8.63;1.05;;;;;;;;;;5090146;28;20103;-60
2021/11/08 13:46:05;;;;;;;4.97;1.00;;;;;;;;;;5092506;28;20024;-60
2021/11/08 13:48:34;;;;;;;9.02;0.85;;;;;;;;;;5092247;28;20059;-60
2021/11/08 13:51:06;;;;;;;8.60;1.35;;;;;;;;;;5080425;28;20425;-61
2021/11/08 13:53:37;;;;;;;6.43;0.80;;;;;;;;;;5093363;28;20028;-61
2021/11/08 13:56:09;;;;;;;9.70;0.75;;;;;;;;;;5096479;28;20039;-61
2021/11/08 13:58:36;;;;;;;8.50;1.73;;;;;;;;;;5095590;28;20115;-61
2021/11/08 14:01:07;;;;;;;6.07;0.65;;;;;;;;;;5092739;28;20032;-61
2021/11/08 14:03:42;;;;;;;8.87;2.13;;;;;;;;;;5092622;28;20607;-61
2021/11/08 14:06:09;;;;;;;7.05;0.70;;;;;;;;;;5094730;28;20785;-60
2021/11/08 14:08:44;;;;;;;3.13;0.55;;;;;;;;;;5099711;28;20070;-60
2021/11/08 14:11:10;;;;;;;7.38;0.90;;;;;;;;;;5094639;28;20259;-61
2021/11/08 14:13:38;;;;;;;8.85;0.80;;;;;;;;;;5094292;28;20166;-61
2021/11/08 14:16:10;;;;;;;5.25;0.70;;;;;;;;;;5092653;28;20142;-61
2021/11/08 14:18:36;;;;;;;7.75;0.98;;;;;;;;;;5094581;28;20035;-61
2021/11/08 14:21:14;;;;;;;12.18;1.17;;;;;;;;;;5093567;28;20746;-61
2021/11/08 14:23:45;;;;;;;12.70;1.98;;;;;;;;;;5074792;28;20039;-61
2021/11/08 14:26:14;;;;;;;11.88;1.30;;;;;;;;;;5097533;28;20468;-62
2021/11/08 14:28:40;;;;;;;9.00;1.10;;;;;;;;;;5092265;28;20115;-60
2021/11/08 14:31:22;;;;;;;4.22;1.00;;;;;;;;;;5096349;28;20464;-61
2021/11/08 14:33:50;;;;;;;5.97;0.93;;;;;;;;;;5094229;28;20498;-60
2021/11/08 14:36:20;;;;;;;10.90;1.17;;;;;;;;;;5090288;28;20063;-60
2021/11/08 14:38:51;;;;;;;8.23;1.45;;;;;;;;;;5096089;28;20020;-60
2021/11/08 14:41:17;;;;;;;10.30;1.35;;;;;;;;;;5095017;28;20031;-60
2021/11/08 14:43:44;;;;;;;13.57;1.90;;;;;;;;;;5092862;28;20028;-60
2021/11/08 14:46:12;;;;;;;9.43;1.13;;;;;;;;;;5093092;28;20036;-60
2021/11/08 14:48:39;;;;;;;12.85;1.52;;;;;;;;;;5092572;28;20557;-60
2021/11/08 14:51:12;;;;;;;7.10;0.82;;;;;;;;;;5096624;28;20287;-61
2021/11/08 14:53:49;;;;;;;5.82;1.50;;;;;;;;;;5090012;28;20387;-60
2021/11/08 14:56:20;;;;;;;9.38;1.73;;;;;;;;;;5094280;28;20036;-60
2021/11/08 14:59:07;;;;;;;7.82;1.10;;;;;;;;;;5091863;28;20506;-60
2021/11/08 15:01:34;;;;;;;10.07;1.08;;;;;;;;;;5087540;28;20115;-61
2021/11/08 15:04:00;;;;;;;6.82;1.30;;;;;;;;;;5093577;28;20055;-62
2021/11/08 15:06:26;;;;;;;9.77;1.48;;;;;;;;;;5092077;28;20565;-62
2021/11/08 15:09:04;;;;;;;6.30;1.58;;;;;;;;;;5097552;28;20035;-61
2021/11/08 15:11:30;;;;;;;9.25;1.20;;;;;;;;;;5096932;28;20371;-61
2021/11/08 15:14:11;;;;;;;7.88;1.10;;;;;;;;;;5099338;28;20664;-62
2021/11/08 15:16:43;;;;;;;9.50;1.05;;;;;;;;;;5093104;28;20107;-61
2021/11/08 15:19:09;;;;;;;11.70;1.65;;;;;;;;;;5093234;28;20119;-60
2021/11/08 15:21:35;;;;;;;13.20;1.27;;;;;;;;;;5100684;28;20571;-59
2021/11/08 15:24:11;;;;;;;6.55;1.27;;;;;;;;;;5093467;28;20509;-59
2021/11/08 15:26:38;;;;;;;8.02;1.30;;;;;;;;;;5101544;28;20028;-59
2021/11/08 15:29:11;;;;;;;10.10;1.55;;;;;;;;;;5095393;28;20020;-60
2021/11/08 15:31:38;;;;;;;4.43;1.08;;;;;;;;;;5096390;28;20036;-60
2021/11/08 15:34:10;;;;;;;12.52;1.25;;;;;;;;;;5097578;28;20020;-59
2021/11/08 15:36:42;;;;;;;9.75;1.83;;;;;;;;;;5092742;28;20034;-60
2021/11/08 15:39:13;;;;;;;6.37;0.97;;;;;;;;;;5098606;28;20020;-60
2021/11/08 15:41:42;;;;;;;15.50;1.20;;;;;;;;;;5093552;28;20462;-60
2021/11/08 15:44:11;;;;;;;19.95;1.88;;;;;;;;;;5094208;28;20493;-59
2021/11/08 15:46:37;;;;;;;8.05;1.90;;;;;;;;;;5095433;28;20032;-60
2021/11/08 15:49:09;;;;;;;22.65;2.13;;;;;;;;;;5097297;27;20084;-59
2021/11/08 15:51:40;;;;;;;13.88;1.92;;;;;;;;;;5105816;27;20107;-60
2021/11/08 15:54:05;;;;;;;14.25;1.48;;;;;;;;;;5098671;27;20034;-60
2021/11/08 15:56:32;;;;;;;13.50;1.50;;;;;;;;;;5098743;28;20140;-60
2021/11/08 15:58:57;;;;;;;14.57;1.85;;;;;;;;;;5094037;28;20026;-60
2021/11/08 16:01:23;;;;;;;16.58;2.35;;;;;;;;;;5100364;28;20402;-59
2021/11/08 16:03:48;;;;;;;11.60;2.00;;;;;;;;;;5094662;28;20576;-59
2021/11/08 16:06:15;;;;;;;13.73;1.80;;;;;;;;;;5094292;28;20031;-59
2021/11/08 16:08:40;;;;;;;12.25;1.65;;;;;;;;;;5089057;28;20446;-59
2021/11/08 16:11:06;;;;;;;9.02;1.25;;;;;;;;;;5094873;28;20035;-59
2021/11/08 16:13:32;;;;;;;19.50;2.67;;;;;;;;;;5091511;28;20047;-60
2021/11/08 16:15:57;;;;;;;8.80;1.48;;;;;;;;;;5094959;28;20024;-60
2021/11/08 16:18:24;;;;;;;11.38;1.50;;;;;;;;;;5093998;28;20031;-61
2021/11/08 16:20:53;;;;;;;24.35;3.17;;;;;;;;;;5094644;28;20037;-60
2021/11/08 16:23:20;;;;;;;14.77;1.88;;;;;;;;;;5093364;28;20375;-60
2021/11/08 16:25:48;;;;;;;18.40;2.15;;;;;;;;;;5093486;28;20038;-61
2021/11/08 16:28:14;;;;;;;10.88;1.20;;;;;;;;;;5092994;28;20036;-61